BBC Polonia — V2EZ6 — position and weather

sailwx.info

Track history (hours):
 
Tides and Currents Weather Stations Pressure Air Temp Water Temp Dewpoint Dewpoint Depression Visibility Wind Speed Wind Dir Waves Ship Positions

BBC Polonia

Last reported at 2018-Jan-22 09:03 UTC. Time now 2018-Jan-23 13:58 UTC.
Position N 43°47' W 005°29'.

Length 123 m; draft 5.5 m.

Type: Cargo ship. MMSI: 305614000.

Date/timePositionNaut miles runAvg speedWind from/ knotsBaromVisibWave heightAir tempDewpointWater temp
2018-Jan-22 09:03N 43°47' W 005°29'1 9.5
2018-Jan-22 08:57N 43°47' W 005°28'6 9.5
2018-Jan-22 08:17N 43°46' W 005°19'104 9.9
2018-Jan-21 21:49N 43°39' W 002°56'610.0
2018-Jan-21 21:11N 43°38' W 002°47'2 9.7
2018-Jan-21 20:59N 43°38' W 002°44'4 9.2
2018-Jan-21 20:31N 43°38' W 002°38'5 9.6
2018-Jan-21 20:01N 43°37' W 002°32'5 9.7
2018-Jan-21 19:31N 43°37' W 002°25'5 9.6
2018-Jan-21 19:00N 43°36' W 002°19'510.2
2018-Jan-21 18:30N 43°35' W 002°12'510.0
2018-Jan-21 18:00N 43°35' W 002°05'5 9.9
2018-Jan-21 17:31N 43°35' W 001°58'5 9.5
2018-Jan-21 17:00N 43°35' W 001°51'6 9.3
2018-Jan-21 16:21N 43°34' W 001°43'3 9.6
2018-Jan-21 16:00N 43°34' W 001°38'5 7.6
2018-Jan-21 15:24N 43°32' W 001°32'  
2018-Jan-12 11:41N 43°32' W 001°30'1 3.6
2018-Jan-12 11:24N 43°31' W 001°30'0 0.5
2018-Jan-12 11:00N 43°31' W 001°30'0 0.0
2018-Jan-12 10:30N 43°31' W 001°30'0 0.0
2018-Jan-12 10:00N 43°31' W 001°30'0 0.0
2018-Jan-12 09:30N 43°31' W 001°30'  
Track history (hours):
 
Tides and Currents Weather Stations Pressure Air Temp Water Temp Dewpoint Dewpoint Depression Visibility Wind Speed Wind Dir Waves Ship Positions

BBC Polonia

Last reported at 2018-Jan-22 09:03 UTC. Time now 2018-Jan-23 13:58 UTC.
Position N 43°47' W 005°29'.

Length 123 m; draft 5.5 m.

Type: Cargo ship. MMSI: 305614000.

Date/timePositionNaut miles runAvg speedWind from/ knotsBaromVisibWave heightAir tempDewpointWater temp
2018-Jan-22 09:03N 43°47' W 005°29'1 9.5
2018-Jan-22 08:57N 43°47' W 005°28'6 9.5
2018-Jan-22 08:17N 43°46' W 005°19'104 9.9
2018-Jan-21 21:49N 43°39' W 002°56'610.0
2018-Jan-21 21:11N 43°38' W 002°47'2 9.7
2018-Jan-21 20:59N 43°38' W 002°44'4 9.2
2018-Jan-21 20:31N 43°38' W 002°38'5 9.6
2018-Jan-21 20:01N 43°37' W 002°32'5 9.7
2018-Jan-21 19:31N 43°37' W 002°25'5 9.6
2018-Jan-21 19:00N 43°36' W 002°19'510.2
2018-Jan-21 18:30N 43°35' W 002°12'510.0
2018-Jan-21 18:00N 43°35' W 002°05'5 9.9
2018-Jan-21 17:31N 43°35' W 001°58'5 9.5
2018-Jan-21 17:00N 43°35' W 001°51'6 9.3
2018-Jan-21 16:21N 43°34' W 001°43'3 9.6
2018-Jan-21 16:00N 43°34' W 001°38'5 7.6
2018-Jan-21 15:24N 43°32' W 001°32'  
2018-Jan-12 11:41N 43°32' W 001°30'1 3.6
2018-Jan-12 11:24N 43°31' W 001°30'0 0.5
2018-Jan-12 11:00N 43°31' W 001°30'0 0.0
2018-Jan-12 10:30N 43°31' W 001°30'0 0.0
2018-Jan-12 10:00N 43°31' W 001°30'0 0.0
2018-Jan-12 09:30N 43°31' W 001°30'  

Dump ship's entire track history